Flight Track Log - Related Links

Times and Time Zones

All times are in EDT time to prevent confusion due to time zone crossing. See the N27XP flight status page for this flight to view local times or setup timezone preferences in your user account.

Time Position Orientation Groundspeed Altitude Reporting Facility
EDT Latitude Longitude Course Direction KTS MPH feet Rate Location/Type
Mon 07:34:34 PM 33.5203 -79.3050 354° North 273 314 9,600  Level Jacksonville Center
Mon 07:35:34 PM 33.6039 -79.3092 358° North 279 321 11,100 1,550 Climbing Jacksonville Center
Mon 07:36:34 PM 33.6917 -79.3131 358° North 295 339 12,700 900 Climbing Jacksonville Center
Mon 07:37:34 PM 33.7900 -79.3192 357° North 312 359 12,900 100 Climbing Jacksonville Center
Mon 07:38:34 PM 33.8967 -79.3247 358° North 345 397 12,900  Level Jacksonville Center
Mon 07:39:00 PM 33.7002 -79.3313 354° North  Level FlightAware Approximate
Mon 07:39:34 PM 34.0072 -79.3303 358° North 372 428 12,900  Level Jacksonville Center
Mon 07:40:34 PM 34.1097 -79.3361 357° North 385 443 12,900 -567 Level Jacksonville Center
Mon 07:42:55 PM 34.3528 -79.3450 358° North 382 440 11,000 -567 Descending Washington Center
Mon 07:43:55 PM 34.4422 -79.3592 353° North 367 422 11,000 50 Level Washington Center
Mon 07:44:55 PM 34.5500 -79.3794 351° North 362 417 11,100 51 Climbing Washington Center
Mon 07:45:53 PM 34.6392 -79.3936 353° North 357 411 11,100 -1,059 Level Washington Center
Mon 07:46:54 PM 34.7408 -79.4108 352° North 346 398 9,000 -2,066 Descending Washington Center
Mon 07:47:55 PM 34.8136 -79.4244 351° North 306 352 6,900 -2,017 Descending Washington Center
Mon 07:48:53 PM 34.8925 -79.4383 352° North 267 307 5,000 -1,650 Descending Washington Center
Mon 07:49:55 PM 34.9436 -79.4661 336° Northwest 231 266 3,600 -950 Descending Washington Center
Mon 07:50:53 PM 35.0011 -79.4967 336° Northwest 207 238 3,100 -252 Descending Washington Center
Mon 07:51:54 PM 35.0442 -79.5192 337° Northwest 187 215 3,100  Level Washington Center
Mon 07:52:54 PM 35.0744 -79.4900 38° Northeast 134 154 3,100  Level Washington Center
Mon 07:54:00 PM 35.1400 -79.4493 351° North  Level Estimated
Mon 08:01:00 PM 35.2333 -79.3833 North  Level FlightAware Approximate

Login

Don't have an account? Register now (free) for customized features, flight alerts, and more!